Main page
METAR-TAF:

METAR-TAF

Airports :

Bad Vöslau, Austria

Bad Vöslau Airport

latitude: 47-57-52N, longitude: 016-15-34E, elevation: 233 m

Current weather observation

The report was made 8 hours and 48 minutes ago, at 18:00 UTC
Wind 9 kt from the East/Northeast
Temperature 21°C
Humidity 40%
Pressure
Clear sky

METAR: LOAV 271800Z 06009KT 40KM SKC 21/07

Time: 04:48 (02:48 UTC)

Forecast

The report was made 13 hours and 42 minutes ago, at 13:06 UTC
Forecast valid from 27 at 13 UTC to 27 at 21 UTC
Wind 8 kt from the North/Northwest
Visibility 10 km or more
Scattered clouds at a height of 4000 ft
Temporary
from 27 at 13 UTC to 27 at 20 UTC
Wind 15 kt from the North/Northeast
Broken clouds at a height of 5000 ft

TAF: LOAV 271306Z 2713/2721 33008KT 9999 SCT040 TEMPO 2713/2720 03015KT BKN050

Weather observations and forecasts of more than 4000 airports (METAR and TAF reports).

The available stations are represented by yellow and red dots on the map.

Hover mouse over dot to see the name of the station.

Then click to see weather observations and forecasts.

To change the map : click on the green buttons with a black cross to zoom in, on the green button with a dash to zoom out, or on the green arrows for adjacent maps.


METAR-TAF: